Flight Track Log - Related Links

Times and Time Zones

All times are in EDT time to prevent confusion due to time zone crossing. See the QXE2633 flight status page for this flight to view local times or setup timezone preferences in your user account.

Time Position Orientation Groundspeed Altitude Reporting Facility
EDT Latitude Longitude Course Direction KTS MPH feet Rate Location/Type
Wed 06:44:00 PM 45.0031 -122.5022 172° South  Level Estimated
Wed 06:45:00 PM 44.9220 -122.4701 164° South  Level FlightAware Approximate
Wed 06:46:00 PM 44.8383 -122.4571 164° South  Level Estimated
Wed 06:47:00 PM 44.7547 -122.4441 170° South  Level Estimated
Wed 06:48:00 PM 44.6731 -122.4148 166° South  Level FlightAware Approximate
Wed 06:49:00 PM 44.5915 -122.3856 166° South  Level FlightAware Approximate
Wed 06:50:00 PM 44.5099 -122.3565 166° South  Level FlightAware Approximate
Wed 06:51:00 PM 44.4283 -122.3274 166° South  Level FlightAware Approximate
Wed 06:52:00 PM 44.3467 -122.2984 166° South  Level FlightAware Approximate
Wed 06:53:00 PM 44.2629 -122.2870 170° South  Level Estimated
Wed 06:54:00 PM 44.1803 -122.2639 169° South  Level FlightAware Approximate
Wed 06:55:00 PM 44.0978 -122.2409 169° South  Level FlightAware Approximate
Wed 06:56:00 PM 44.0152 -122.2180 169° South  Level FlightAware Approximate
Wed 06:57:00 PM 43.9326 -122.1951 169° South  Level FlightAware Approximate
Wed 06:58:00 PM 43.8500 -122.1723 169° South  Level FlightAware Approximate
Wed 06:59:00 PM 43.7675 -122.1496 169° South  Level FlightAware Approximate
Wed 07:00:00 PM 43.6849 -122.1269 169° South  Level FlightAware Approximate
Wed 07:01:00 PM 43.6023 -122.1043 169° South  Level FlightAware Approximate
Wed 07:02:00 PM 43.5197 -122.0817 169° South  Level FlightAware Approximate
Wed 07:03:00 PM 43.4371 -122.0593 169° South  Level FlightAware Approximate
Wed 07:04:00 PM 43.3545 -122.0368 169° South  Level FlightAware Approximate
Wed 07:05:00 PM 43.2719 -122.0145 169° South  Level FlightAware Approximate
Wed 07:06:00 PM 43.1893 -121.9921 169° South  Level FlightAware Approximate
Wed 07:07:00 PM 43.1067 -121.9699 169° South  Level FlightAware Approximate
Wed 07:08:00 PM 43.0240 -121.9477 169° South  Level FlightAware Approximate
Wed 07:09:00 PM 42.9414 -121.9256 169° South  Level FlightAware Approximate
Wed 07:10:00 PM 42.8588 -121.9035 169° South  Level FlightAware Approximate
Wed 07:11:00 PM 42.7761 -121.8815 169° South  Level FlightAware Approximate
Wed 07:12:00 PM 42.6935 -121.8596 169° South  Level FlightAware Approximate
Wed 07:13:00 PM 42.6094 -121.8536 180° South  Level Estimated
Wed 07:14:00 PM 42.5254 -121.8456 176° South  Level FlightAware Approximate
Wed 07:15:00 PM 42.4414 -121.8376 176° South  Level FlightAware Approximate
Wed 07:16:00 PM 42.3574 -121.8297 176° South  Level FlightAware Approximate
Wed 07:17:00 PM 42.2735 -121.8218 176° South  Level FlightAware Approximate
Wed 07:18:00 PM 42.1895 -121.8139 176° South  Level FlightAware Approximate
Wed 07:19:00 PM 42.1055 -121.8061 176° South  Level FlightAware Approximate
Wed 07:20:00 PM 42.0215 -121.7983 176° South  Level FlightAware Approximate
Wed 07:21:00 PM 41.9375 -121.7905 176° South  Level FlightAware Approximate
Wed 07:22:00 PM 41.8535 -121.7827 176° South  Level FlightAware Approximate
Wed 07:23:00 PM 41.7695 -121.7749 176° South  Level FlightAware Approximate
Wed 07:24:00 PM 41.6855 -121.7671 176° South  Level FlightAware Approximate
Wed 07:25:00 PM 41.6014 -121.7620 180° South  Level Estimated
Wed 07:26:00 PM 41.5172 -121.7586 178° South  Level FlightAware Approximate
Wed 07:27:00 PM 41.4331 -121.7553 178° South  Level FlightAware Approximate
Wed 07:28:00 PM 41.3489 -121.7520 178° South  Level FlightAware Approximate
Wed 07:29:00 PM 41.2647 -121.7487 178° South  Level FlightAware Approximate
Wed 07:30:00 PM 41.1806 -121.7455 178° South  Level FlightAware Approximate
Wed 07:31:00 PM 41.0964 -121.7422 178° South  Level FlightAware Approximate
Wed 07:32:00 PM 41.0123 -121.7389 178° South  Level FlightAware Approximate
Wed 07:33:00 PM 40.9282 -121.7334 171° South  Level Estimated
Wed 07:34:00 PM 40.8441 -121.7278 180° South  Level Estimated
Wed 07:35:00 PM 40.7600 -121.7223 174° South  Level Estimated
Wed 07:36:00 PM 40.6759 -121.7173 177° South  Level FlightAware Approximate
Wed 07:37:00 PM 40.5918 -121.7117 175° South  Level Estimated
Wed 07:38:00 PM 40.5077 -121.7058 177° South  Level FlightAware Approximate
Wed 07:39:00 PM 40.4236 -121.7003 176° South  Level Estimated
Wed 07:40:00 PM 40.3436 -121.7000 180° South  Level FlightAware Approximate
Wed 07:41:00 PM 40.2741 -121.7000 180° South  Level FlightAware Approximate
Wed 07:42:00 PM 40.1942 -121.6968 174° South  Level FlightAware Approximate
Wed 07:43:00 PM 40.1146 -121.6854 174° South  Level FlightAware Approximate
Wed 07:44:00 PM 40.0348 -121.6761 175° South  Level FlightAware Approximate
Wed 07:45:00 PM 39.9550 -121.6672 175° South  Level FlightAware Approximate
Wed 07:46:00 PM 39.8750 -121.6633 176° South  Level FlightAware Approximate
Wed 07:47:00 PM 39.7951 -121.6569 176° South  Level FlightAware Approximate
Wed 07:48:00 PM 39.7152 -121.6505 176° South  Level FlightAware Approximate
Wed 07:49:00 PM 39.6352 -121.6441 176° South  Level FlightAware Approximate
Wed 07:50:00 PM 39.5553 -121.6377 176° South  Level FlightAware Approximate
Wed 07:51:00 PM 39.4753 -121.6325 176° South  Level FlightAware Approximate
Wed 07:52:00 PM 39.3955 -121.6245 176° South  Level FlightAware Approximate
Wed 07:53:00 PM 39.3157 -121.6167 180° South  Level FlightAware Approximate
Wed 07:54:00 PM 39.2356 -121.6167 180° South  Level FlightAware Approximate
Wed 07:55:00 PM 39.1558 -121.6070 174° South  Level FlightAware Approximate
Wed 07:56:00 PM 39.0703 -121.5957 174° South  Level FlightAware Approximate
Wed 07:57:00 PM 38.9847 -121.5835 174° South  Level FlightAware Approximate
Wed 07:58:00 PM 38.8987 -121.5833 180° South  Level FlightAware Approximate
Wed 07:59:00 PM 38.8127 -121.5833 180° South  Level FlightAware Approximate
Wed 08:00:00 PM 38.7267 -121.5833 180° South  Level FlightAware Approximate
Wed 08:01:00 PM 38.6954 -121.5908 180° South  Level Estimated
Wed 08:02:00 PM 38.6954 -121.5908 180° South  Level Estimated
Wed 08:03:00 PM 38.6954 -121.5908 180° South  Level Estimated
Wed 08:04:00 PM 38.6954 -121.5908 180° South  Level Estimated
Wed 08:05:00 PM 38.6954 -121.5908 180° South  Level Estimated
Wed 08:06:00 PM 38.6954 -121.5908 180° South  Level Estimated
Wed 08:07:00 PM 38.6954 -121.5908 180° South  Level Estimated
Wed 08:08:00 PM 38.6954 -121.5908 180° South  Level Estimated
Wed 08:09:00 PM 38.6954 -121.5908 180° South  Level Estimated

Login

Don't have an account? Register now (free) for customized features, flight alerts, and more!